Time;durP1;ratioP1;P1;durP2;ratioP2;P2;SDS_P1;SDS_P2;PMS_P1;PMS_P2;Temp;Humidity;BMP_temperature;BMP_pressure;BME280_temperature;BME280_humidity;BME280_pressure;Samples;Min_cycle;Max_cycle;Signal;HPM_P1;HPM_P2
2022/07/07 00:00:40;;;;;;;2.65;1.00;;;18.60;57.20;;;;;;5047813;28;20167;-68
2022/07/07 00:03:07;;;;;;;0.82;0.75;;;18.60;57.30;;;;;;5052818;28;20147;-67
2022/07/07 00:05:38;;;;;;;1.30;0.80;;;18.50;57.60;;;;;;5056976;28;20565;-67
2022/07/07 00:08:05;;;;;;;2.20;1.20;;;18.50;57.80;;;;;;5047966;28;20140;-68
2022/07/07 00:10:32;;;;;;;1.95;0.70;;;18.40;58.10;;;;;;5052362;28;20048;-67
2022/07/07 00:12:59;;;;;;;1.17;0.90;;;18.40;58.30;;;;;;5046949;28;20486;-68
2022/07/07 00:15:27;;;;;;;1.50;0.80;;;18.40;58.40;;;;;;5046654;28;20045;-67
2022/07/07 00:17:54;;;;;;;1.88;0.90;;;18.40;58.50;;;;;;5043882;28;20138;-65
2022/07/07 00:20:21;;;;;;;1.90;0.90;;;18.30;58.80;;;;;;5057944;28;20060;-66
2022/07/07 00:22:48;;;;;;;2.13;0.93;;;18.30;58.80;;;;;;5048136;28;20048;-66
2022/07/07 00:25:15;;;;;;;1.65;0.90;;;18.30;58.80;;;;;;5044374;28;20509;-67
2022/07/07 00:27:42;;;;;;;3.40;1.23;;;18.40;58.80;;;;;;5046489;28;20041;-67
2022/07/07 00:30:10;;;;;;;2.30;1.00;;;18.40;58.90;;;;;;5046784;28;20063;-67
2022/07/07 00:32:38;;;;;;;1.92;0.93;;;18.30;59.00;;;;;;5054465;28;20044;-68
2022/07/07 00:35:06;;;;;;;2.33;1.15;;;18.30;59.00;;;;;;5053838;28;20051;-65
2022/07/07 00:37:33;;;;;;;1.98;1.00;;;18.40;59.00;;;;;;5050437;28;20405;-67
2022/07/07 00:40:00;;;;;;;2.28;0.85;;;18.40;59.00;;;;;;5057512;28;20086;-68
2022/07/07 00:42:27;;;;;;;3.42;0.90;;;18.40;59.00;;;;;;5048252;28;20040;-68
2022/07/07 00:44:54;;;;;;;3.28;0.98;;;18.30;58.90;;;;;;5045465;28;20045;-67
2022/07/07 00:47:21;;;;;;;1.88;1.02;;;18.30;59.00;;;;;;5067186;28;20056;-67
2022/07/07 00:49:49;;;;;;;1.60;0.98;;;18.30;59.10;;;;;;5047584;28;20049;-67
2022/07/07 00:52:16;;;;;;;2.15;1.27;;;18.30;59.10;;;;;;5051781;28;20132;-68
2022/07/07 00:54:51;;;;;;;3.50;0.95;;;18.30;59.10;;;;;;5055182;28;20132;-67
2022/07/07 00:57:18;;;;;;;2.22;1.20;;;18.30;59.30;;;;;;5049157;28;20063;-68
2022/07/07 00:59:45;;;;;;;4.05;1.00;;;18.30;59.30;;;;;;5051412;28;20048;-68
2022/07/07 01:02:12;;;;;;;2.15;1.00;;;18.30;59.40;;;;;;5046056;28;20048;-66
2022/07/07 01:04:39;;;;;;;2.35;0.95;;;18.30;59.50;;;;;;5051294;28;20491;-66
2022/07/07 01:07:08;;;;;;;3.05;1.10;;;18.30;59.50;;;;;;5058191;28;20060;-66
2022/07/07 01:09:36;;;;;;;3.10;1.08;;;18.30;59.60;;;;;;5047966;28;20079;-66
2022/07/07 01:12:03;;;;;;;2.55;1.08;;;18.30;59.60;;;;;;5051327;28;20052;-67
2022/07/07 01:14:30;;;;;;;2.53;0.95;;;18.30;59.70;;;;;;5042767;28;20052;-65
2022/07/07 01:16:57;;;;;;;2.30;1.20;;;18.30;59.70;;;;;;5051487;28;20048;-66
2022/07/07 01:19:25;;;;;;;1.48;0.98;;;18.30;59.80;;;;;;5053972;28;20045;-68
2022/07/07 01:21:55;;;;;;;2.40;1.00;;;18.30;59.70;;;;;;5048202;28;20043;-68
2022/07/07 01:24:26;;;;;;;2.08;1.10;;;18.30;59.70;;;;;;5047621;28;20045;-67
2022/07/07 01:27:05;;;;;;;1.92;1.30;;;18.30;59.70;;;;;;5050969;28;20086;-67
2022/07/07 01:29:35;;;;;;;1.50;1.05;;;18.30;59.70;;;;;;5049388;28;20053;-66
2022/07/07 01:32:03;;;;;;;1.02;0.80;;;18.20;59.70;;;;;;5056581;28;20060;-68
2022/07/07 01:34:30;;;;;;;4.30;1.10;;;18.30;59.70;;;;;;5056508;28;20053;-68
2022/07/07 01:36:57;;;;;;;1.70;1.00;;;18.20;59.80;;;;;;5071346;28;20131;-69
2022/07/07 01:39:25;;;;;;;2.85;1.27;;;18.20;59.90;;;;;;5055524;28;20091;-68
2022/07/07 01:41:52;;;;;;;1.33;0.90;;;18.20;60.10;;;;;;5052733;28;20551;-67
2022/07/07 01:44:19;;;;;;;1.48;1.08;;;18.20;60.10;;;;;;5057026;28;20701;-67
2022/07/07 01:46:46;;;;;;;1.10;0.82;;;18.20;60.20;;;;;;5051264;28;20051;-67
2022/07/07 01:49:13;;;;;;;2.00;0.90;;;18.10;60.30;;;;;;5047217;28;20056;-66
2022/07/07 01:51:40;;;;;;;2.13;1.05;;;18.20;60.30;;;;;;5049888;28;20045;-66
2022/07/07 01:54:06;;;;;;;1.60;1.20;;;18.10;60.30;;;;;;5049125;28;20063;-66
2022/07/07 01:56:35;;;;;;;2.55;1.00;;;18.10;60.40;;;;;;5042466;28;20052;-67
2022/07/07 01:59:02;;;;;;;1.75;1.08;;;18.10;60.30;;;;;;5043026;28;20050;-65
2022/07/07 02:01:29;;;;;;;2.90;1.10;;;18.10;60.30;;;;;;5050227;28;20149;-66
2022/07/07 02:03:56;;;;;;;1.88;1.17;;;18.10;60.40;;;;;;5050702;28;20048;-63
2022/07/07 02:06:23;;;;;;;2.08;1.25;;;18.10;60.20;;;;;;5053658;28;20044;-66
2022/07/07 02:08:50;;;;;;;4.07;1.33;;;18.10;60.20;;;;;;5056332;28;20094;-63
2022/07/07 02:11:17;;;;;;;1.92;1.00;;;18.10;60.10;;;;;;5055556;28;20053;-64
2022/07/07 02:13:47;;;;;;;3.05;1.00;;;18.10;60.10;;;;;;5058263;28;20045;-65
2022/07/07 02:16:16;;;;;;;1.38;1.05;;;18.10;60.10;;;;;;5056685;28;20052;-65
2022/07/07 02:18:44;;;;;;;1.67;1.10;;;18.10;60.10;;;;;;5046755;28;20045;-66
2022/07/07 02:21:13;;;;;;;1.70;1.33;;;18.10;60.10;;;;;;5045658;28;20045;-66
2022/07/07 02:23:42;;;;;;;1.77;1.23;;;18.10;60.10;;;;;;5048345;28;20048;-66
2022/07/07 02:26:09;;;;;;;4.15;1.40;;;18.10;60.10;;;;;;5048322;28;20057;-66
2022/07/07 02:28:36;;;;;;;7.72;1.40;;;18.10;60.30;;;;;;5061047;28;20068;-68
2022/07/07 02:31:05;;;;;;;1.88;1.10;;;18.10;60.50;;;;;;5057262;28;20048;-65
2022/07/07 02:33:32;;;;;;;2.20;1.17;;;18.10;60.60;;;;;;5051563;28;20053;-66
2022/07/07 02:35:59;;;;;;;1.98;1.20;;;18.10;60.60;;;;;;5049060;28;20048;-66
2022/07/07 02:38:26;;;;;;;1.67;1.17;;;18.10;60.70;;;;;;5052737;28;20048;-66
2022/07/07 02:40:53;;;;;;;1.63;1.20;;;18.10;60.70;;;;;;5046460;28;20047;-65
2022/07/07 02:43:21;;;;;;;2.03;1.30;;;18.10;60.70;;;;;;5049943;28;20507;-63
2022/07/07 02:45:49;;;;;;;2.55;1.20;;;18.10;60.60;;;;;;5048747;28;20048;-65
2022/07/07 02:48:20;;;;;;;3.00;1.23;;;18.10;60.50;;;;;;5044587;28;20376;-67
2022/07/07 02:50:48;;;;;;;2.15;1.30;;;18.10;60.40;;;;;;5048661;28;20048;-64
2022/07/07 02:53:16;;;;;;;2.90;1.20;;;18.10;60.40;;;;;;5051409;28;20082;-65
2022/07/07 02:55:44;;;;;;;2.60;1.27;;;18.10;60.70;;;;;;5051387;28;20398;-65
2022/07/07 02:58:13;;;;;;;2.10;1.27;;;18.10;60.70;;;;;;5050336;28;20049;-66
2022/07/07 03:00:40;;;;;;;2.28;1.27;;;18.10;61.00;;;;;;5036502;28;20049;-65
2022/07/07 03:03:08;;;;;;;2.42;1.23;;;18.10;61.10;;;;;;5045225;28;20048;-64
2022/07/07 03:05:37;;;;;;;2.75;1.33;;;18.10;61.50;;;;;;5046445;28;20053;-68
2022/07/07 03:08:04;;;;;;;2.70;1.13;;;18.10;61.60;;;;;;5047983;28;20056;-66
2022/07/07 03:10:31;;;;;;;4.25;1.13;;;18.10;61.70;;;;;;5051629;28;20051;-65
2022/07/07 03:12:58;;;;;;;1.67;1.00;;;18.10;61.70;;;;;;5055046;28;20262;-66
2022/07/07 03:15:25;;;;;;;2.25;1.15;;;18.10;61.70;;;;;;5072245;28;20044;-66
2022/07/07 03:17:52;;;;;;;1.25;1.02;;;18.10;61.70;;;;;;5056965;28;20966;-64
2022/07/07 03:20:20;;;;;;;2.70;1.20;;;18.10;61.60;;;;;;5055750;28;20623;-66
2022/07/07 03:22:48;;;;;;;2.97;1.33;;;18.10;61.70;;;;;;5057027;28;20048;-66
2022/07/07 03:25:15;;;;;;;1.27;0.93;;;18.10;61.40;;;;;;5059427;28;20044;-65
2022/07/07 03:27:42;;;;;;;2.25;1.00;;;18.10;61.30;;;;;;5051506;28;20072;-64
2022/07/07 03:30:10;;;;;;;2.55;1.20;;;18.10;61.40;;;;;;5054978;28;20056;-63
2022/07/07 03:32:38;;;;;;;4.47;1.00;;;18.10;61.20;;;;;;5055604;28;20495;-66
2022/07/07 03:35:08;;;;;;;1.77;0.93;;;18.10;61.50;;;;;;5056982;28;20094;-64
2022/07/07 03:37:35;;;;;;;1.48;0.75;;;18.20;61.50;;;;;;5054882;28;20053;-65
2022/07/07 03:40:04;;;;;;;2.00;1.00;;;18.20;61.40;;;;;;5056802;28;20048;-65
2022/07/07 03:42:31;;;;;;;2.15;1.10;;;18.10;61.40;;;;;;5036090;28;20409;-66
2022/07/07 03:44:58;;;;;;;2.67;0.80;;;18.10;61.50;;;;;;5056718;28;20049;-66
2022/07/07 03:47:25;;;;;;;3.83;1.42;;;18.10;61.60;;;;;;5049502;28;20041;-66
2022/07/07 03:49:52;;;;;;;2.38;0.88;;;18.10;61.50;;;;;;5053331;28;20056;-66
2022/07/07 03:52:19;;;;;;;1.90;1.00;;;18.10;61.40;;;;;;5048869;28;20128;-65
2022/07/07 03:54:46;;;;;;;1.83;0.90;;;18.10;61.30;;;;;;5046249;28;20401;-66
2022/07/07 03:57:14;;;;;;;3.03;1.02;;;18.10;61.20;;;;;;5047170;28;20044;-65
2022/07/07 03:59:41;;;;;;;2.17;1.10;;;18.10;61.40;;;;;;5050114;28;20046;-65
2022/07/07 04:02:09;;;;;;;2.45;0.98;;;18.10;61.50;;;;;;5042079;28;20047;-64
2022/07/07 04:04:36;;;;;;;2.47;1.15;;;18.10;61.50;;;;;;5034130;28;20410;-65
2022/07/07 04:07:04;;;;;;;2.38;1.17;;;18.10;61.50;;;;;;5047804;28;20052;-66
2022/07/07 04:09:31;;;;;;;4.80;1.23;;;18.00;61.40;;;;;;5047035;28;20126;-65
2022/07/07 04:11:58;;;;;;;4.15;1.30;;;18.00;61.50;;;;;;5049497;28;20044;-66
2022/07/07 04:14:26;;;;;;;2.78;1.08;;;18.00;61.30;;;;;;5048106;28;20044;-65
2022/07/07 04:16:53;;;;;;;2.08;1.13;;;18.00;61.20;;;;;;5046947;28;20049;-63
2022/07/07 04:19:20;;;;;;;2.35;0.80;;;18.00;60.80;;;;;;5051707;28;20044;-65
2022/07/07 04:21:47;;;;;;;2.63;1.10;;;18.00;60.60;;;;;;5046240;28;20087;-64
2022/07/07 04:24:14;;;;;;;1.27;0.85;;;18.00;60.50;;;;;;5049051;28;20057;-63
2022/07/07 04:26:40;;;;;;;3.58;1.30;;;18.00;60.30;;;;;;5046204;28;20041;-64
2022/07/07 04:29:08;;;;;;;5.55;1.20;;;18.00;60.50;;;;;;5050010;28;20048;-66
2022/07/07 04:31:37;;;;;;;2.65;1.27;;;18.00;60.60;;;;;;5050555;28;20461;-65
2022/07/07 04:34:05;;;;;;;3.30;1.02;;;18.00;60.70;;;;;;5045297;28;20041;-65
2022/07/07 04:36:32;;;;;;;1.67;1.05;;;18.00;60.90;;;;;;5048579;28;20049;-65
2022/07/07 04:38:59;;;;;;;2.30;1.23;;;18.00;61.20;;;;;;5047261;28;20067;-64
2022/07/07 04:41:26;;;;;;;5.53;1.40;;;18.10;60.80;;;;;;5044167;28;20049;-65
2022/07/07 04:43:53;;;;;;;2.53;1.08;;;18.10;60.80;;;;;;5048204;28;20131;-66
2022/07/07 04:46:19;;;;;;;5.03;0.93;;;18.10;60.50;;;;;;5047126;28;20446;-67
2022/07/07 04:48:48;;;;;;;6.07;1.10;;;18.20;60.00;;;;;;5045255;28;20049;-64
2022/07/07 04:51:15;;;;;;;2.53;1.17;;;18.20;59.80;;;;;;5049691;28;20512;-67
2022/07/07 04:53:42;;;;;;;2.25;1.15;;;18.30;59.60;;;;;;5047014;28;20068;-64
2022/07/07 04:56:08;;;;;;;6.50;1.38;;;18.30;59.80;;;;;;5045386;28;20049;-65
2022/07/07 04:58:35;;;;;;;4.63;1.10;;;18.30;60.50;;;;;;5044627;28;20048;-67
2022/07/07 05:01:02;;;;;;;3.70;1.17;;;18.30;60.90;;;;;;5043614;28;20044;-64
2022/07/07 05:03:29;;;;;;;3.55;0.90;;;18.40;60.70;;;;;;5046289;28;20044;-66
2022/07/07 05:05:58;;;;;;;2.45;1.10;;;18.40;60.90;;;;;;5041970;28;20446;-64
2022/07/07 05:08:25;;;;;;;1.90;1.02;;;18.40;60.90;;;;;;5047281;28;20044;-66
2022/07/07 05:10:52;;;;;;;2.90;1.00;;;18.40;61.10;;;;;;5048689;28;20048;-65
2022/07/07 05:13:18;;;;;;;4.07;1.23;;;18.30;61.30;;;;;;5046143;28;20048;-66
2022/07/07 05:15:45;;;;;;;1.90;1.30;;;18.30;61.70;;;;;;5046180;28;20041;-66
2022/07/07 05:18:12;;;;;;;2.63;1.33;;;18.30;61.60;;;;;;5048466;28;20056;-64
2022/07/07 05:20:39;;;;;;;4.20;1.38;;;18.30;61.50;;;;;;5048943;28;20061;-64
2022/07/07 05:23:07;;;;;;;4.18;1.02;;;18.30;61.40;;;;;;5043108;28;20064;-65
2022/07/07 05:25:34;;;;;;;1.77;0.93;;;18.40;61.10;;;;;;5043600;28;20053;-66
2022/07/07 05:28:01;;;;;;;3.38;1.30;;;18.40;61.10;;;;;;5041354;28;20061;-65
2022/07/07 05:30:28;;;;;;;2.17;1.20;;;18.50;60.80;;;;;;5044844;28;20051;-66
2022/07/07 05:32:55;;;;;;;3.05;1.10;;;18.50;60.70;;;;;;5059820;28;20387;-65
2022/07/07 05:35:22;;;;;;;2.30;0.90;;;18.50;60.60;;;;;;5049890;28;20037;-66
2022/07/07 05:37:49;;;;;;;4.25;1.25;;;18.60;60.30;;;;;;5049996;28;20134;-64
2022/07/07 05:40:17;;;;;;;3.50;1.23;;;18.50;59.90;;;;;;5047733;28;20380;-65
2022/07/07 05:42:45;;;;;;;2.50;1.00;;;18.60;59.80;;;;;;5045625;28;20063;-64
2022/07/07 05:45:12;;;;;;;1.63;1.05;;;18.60;59.50;;;;;;5045500;28;20495;-65
2022/07/07 05:47:38;;;;;;;4.40;1.17;;;18.60;59.60;;;;;;5046072;28;20044;-65
2022/07/07 05:50:07;;;;;;;1.52;0.90;;;18.60;59.70;;;;;;5045661;28;20046;-64
2022/07/07 05:52:34;;;;;;;5.28;1.20;;;18.60;59.60;;;;;;5048266;28;20052;-65
2022/07/07 05:55:01;;;;;;;2.78;1.00;;;18.50;59.90;;;;;;5045564;28;20094;-66
2022/07/07 05:57:29;;;;;;;2.30;1.02;;;18.50;59.80;;;;;;5045965;28;20041;-67
2022/07/07 05:59:56;;;;;;;3.67;1.20;;;18.50;59.70;;;;;;5050533;28;20057;-66
2022/07/07 06:02:23;;;;;;;2.20;0.95;;;18.40;59.70;;;;;;5043745;28;20378;-66
2022/07/07 06:04:50;;;;;;;2.55;1.10;;;18.40;59.80;;;;;;5046283;28;20055;-65
2022/07/07 06:07:17;;;;;;;2.58;0.88;;;18.40;59.70;;;;;;5046726;28;20163;-66
2022/07/07 06:09:45;;;;;;;3.75;1.33;;;18.40;59.50;;;;;;5047302;28;20049;-66
2022/07/07 06:12:12;;;;;;;4.32;1.40;;;18.50;59.50;;;;;;5047573;28;20175;-65
2022/07/07 06:14:41;;;;;;;1.58;1.08;;;18.50;59.70;;;;;;5045641;28;20170;-66
2022/07/07 06:17:09;;;;;;;1.92;1.10;;;18.40;60.20;;;;;;5047378;28;20041;-66
2022/07/07 06:19:36;;;;;;;2.45;1.15;;;18.30;60.50;;;;;;5046250;28;20403;-66
2022/07/07 06:22:03;;;;;;;2.33;1.10;;;18.30;60.80;;;;;;5047062;28;20151;-67
2022/07/07 06:24:30;;;;;;;4.85;1.10;;;18.30;61.00;;;;;;5046366;28;20041;-66
2022/07/07 06:26:57;;;;;;;3.22;1.08;;;18.30;61.40;;;;;;5043352;28;20043;-66
2022/07/07 06:29:23;;;;;;;2.05;1.00;;;18.20;62.20;;;;;;5044317;28;20060;-67
2022/07/07 06:31:52;;;;;;;3.60;1.25;;;18.20;62.90;;;;;;5052126;28;20073;-67
2022/07/07 06:34:19;;;;;;;1.80;0.90;;;18.10;63.40;;;;;;5043263;28;20161;-66
2022/07/07 06:36:45;;;;;;;3.00;1.30;;;18.10;64.10;;;;;;5048943;28;20041;-65
2022/07/07 06:39:12;;;;;;;2.10;1.30;;;18.10;64.70;;;;;;5050284;28;20047;-66
2022/07/07 06:41:40;;;;;;;3.17;1.27;;;18.10;64.80;;;;;;5055053;28;20045;-66
2022/07/07 06:44:09;;;;;;;3.83;1.30;;;18.10;65.20;;;;;;5048217;28;20045;-68
2022/07/07 06:46:36;;;;;;;5.50;1.20;;;18.00;66.20;;;;;;5045045;28;20049;-67
2022/07/07 06:49:04;;;;;;;4.25;1.60;;;17.90;66.60;;;;;;5051788;28;20041;-69
2022/07/07 06:51:31;;;;;;;5.28;1.50;;;17.90;66.70;;;;;;5046525;28;20049;-67
2022/07/07 06:53:58;;;;;;;5.70;1.88;;;18.00;66.80;;;;;;5045922;28;20068;-68
2022/07/07 06:56:26;;;;;;;5.40;2.20;;;18.00;67.10;;;;;;5045582;28;20059;-68
2022/07/07 06:58:53;;;;;;;4.25;2.05;;;17.90;67.40;;;;;;5052557;28;20044;-67
2022/07/07 07:01:20;;;;;;;13.38;2.33;;;17.90;67.60;;;;;;5050960;28;20073;-67
2022/07/07 07:03:47;;;;;;;6.65;1.90;;;17.90;67.70;;;;;;5044392;28;20071;-65
2022/07/07 07:06:16;;;;;;;4.15;1.50;;;17.90;67.40;;;;;;5054852;28;20546;-65
2022/07/07 07:08:43;;;;;;;6.85;1.77;;;17.90;67.50;;;;;;5050971;28;20052;-67
2022/07/07 07:11:09;;;;;;;3.60;1.83;;;18.00;67.60;;;;;;5057920;28;20063;-66
2022/07/07 07:13:36;;;;;;;3.28;1.73;;;18.10;67.70;;;;;;5054152;28;20045;-68
2022/07/07 07:16:04;;;;;;;8.68;2.03;;;18.10;67.70;;;;;;5048921;28;20478;-66
2022/07/07 07:18:31;;;;;;;3.20;1.50;;;18.10;67.70;;;;;;5052376;28;20044;-67
2022/07/07 07:20:58;;;;;;;3.03;1.30;;;18.10;67.70;;;;;;5053726;28;20037;-68
2022/07/07 07:23:26;;;;;;;6.78;1.63;;;18.10;68.00;;;;;;5049576;28;20044;-66
2022/07/07 07:25:53;;;;;;;3.28;1.73;;;18.10;68.10;;;;;;5050077;28;20048;-67
2022/07/07 07:28:20;;;;;;;3.92;1.38;;;18.20;68.20;;;;;;5046998;28;20613;-65
2022/07/07 07:30:47;;;;;;;2.40;1.23;;;18.30;68.20;;;;;;5048170;28;20052;-67
2022/07/07 07:33:14;;;;;;;3.20;1.67;;;18.40;68.00;;;;;;5048361;28;20106;-68
2022/07/07 07:35:41;;;;;;;3.20;1.40;;;18.50;68.10;;;;;;5056929;28;20054;-66
2022/07/07 07:38:08;;;;;;;3.13;1.48;;;18.60;67.70;;;;;;5060500;28;20051;-66
2022/07/07 07:40:36;;;;;;;3.53;1.40;;;18.90;67.50;;;;;;5047731;28;20049;-66
2022/07/07 07:43:03;;;;;;;2.78;1.50;;;19.20;67.00;;;;;;5053954;28;20041;-66
2022/07/07 07:45:30;;;;;;;3.90;1.15;;;19.40;66.80;;;;;;5057998;28;20053;-63
2022/07/07 07:47:57;;;;;;;4.60;1.38;;;19.60;66.20;;;;;;5057298;28;20064;-65
2022/07/07 07:50:24;;;;;;;2.63;1.33;;;19.90;65.70;;;;;;5058822;28;20052;-64
2022/07/07 07:52:52;;;;;;;2.58;1.10;;;20.10;65.30;;;;;;5058526;28;20071;-64
2022/07/07 07:55:21;;;;;;;3.03;1.20;;;20.10;65.10;;;;;;5048699;28;20057;-65
2022/07/07 07:57:50;;;;;;;3.78;1.30;;;20.10;64.70;;;;;;5044431;28;20053;-66
2022/07/07 08:00:18;;;;;;;2.45;1.23;;;20.10;64.20;;;;;;5056746;28;20511;-64
2022/07/07 08:02:46;;;;;;;3.53;1.10;;;20.10;64.20;;;;;;5059047;28;20049;-65
2022/07/07 08:05:14;;;;;;;4.50;1.38;;;20.10;63.90;;;;;;5059703;28;20059;-63
2022/07/07 08:07:42;;;;;;;1.98;1.20;;;20.20;63.60;;;;;;5060249;28;20063;-64
2022/07/07 08:10:09;;;;;;;2.83;1.20;;;20.30;63.40;;;;;;5058010;28;20076;-63
2022/07/07 08:12:37;;;;;;;2.72;1.25;;;20.40;63.50;;;;;;5058402;28;20055;-64
2022/07/07 08:15:06;;;;;;;5.03;1.02;;;20.40;63.00;;;;;;5059787;28;20051;-66
2022/07/07 08:17:34;;;;;;;3.55;1.20;;;20.40;63.20;;;;;;5058270;28;20386;-63
2022/07/07 08:20:01;;;;;;;3.13;1.05;;;20.50;63.00;;;;;;5057447;28;20064;-65
2022/07/07 08:22:28;;;;;;;4.70;1.08;;;20.50;63.00;;;;;;5059142;28;20040;-64
2022/07/07 08:24:55;;;;;;;3.13;1.40;;;20.60;62.70;;;;;;5058465;28;20503;-65
2022/07/07 08:27:22;;;;;;;2.17;1.00;;;20.60;62.70;;;;;;5059237;28;20077;-65
2022/07/07 08:29:49;;;;;;;4.00;1.30;;;20.60;62.70;;;;;;5046714;28;20045;-64
2022/07/07 08:32:17;;;;;;;3.67;1.40;;;20.50;62.70;;;;;;5058307;28;20408;-63
2022/07/07 08:34:45;;;;;;;2.60;1.00;;;20.50;62.90;;;;;;5058478;28;20044;-65
2022/07/07 08:37:12;;;;;;;2.05;1.15;;;20.40;62.70;;;;;;5054104;28;20061;-63
2022/07/07 08:39:39;;;;;;;3.72;1.05;;;20.30;63.10;;;;;;5057823;28;20045;-64
2022/07/07 08:42:06;;;;;;;3.45;0.98;;;20.30;62.90;;;;;;5058267;28;20041;-63
2022/07/07 08:44:33;;;;;;;2.95;1.30;;;20.30;63.10;;;;;;5057609;28;20053;-64
2022/07/07 08:47:00;;;;;;;1.88;0.95;;;20.20;63.20;;;;;;5056724;28;20132;-64
2022/07/07 08:49:30;;;;;;;1.95;0.90;;;20.20;63.40;;;;;;5058340;28;20398;-64
2022/07/07 08:51:58;;;;;;;2.67;1.02;;;20.20;63.30;;;;;;5057555;28;20140;-65
2022/07/07 08:54:27;;;;;;;3.95;1.13;;;20.20;63.40;;;;;;5059713;28;20044;-65
2022/07/07 08:56:55;;;;;;;4.97;1.30;;;20.20;63.30;;;;;;5057426;28;20101;-63
2022/07/07 08:59:22;;;;;;;2.92;1.00;;;20.20;63.30;;;;;;5058812;28;20135;-65
2022/07/07 09:02:00;;;;;;;6.90;1.63;;;20.20;63.30;;;;;;5053774;28;20055;-65
2022/07/07 09:04:28;;;;;;;3.20;1.13;;;20.30;63.10;;;;;;5060215;28;20165;-64
2022/07/07 09:06:57;;;;;;;3.50;1.13;;;20.30;63.00;;;;;;5059773;28;20058;-65
2022/07/07 09:09:37;;;;;;;4.35;1.33;;;20.30;63.10;;;;;;5059556;28;20059;-65
2022/07/07 09:12:05;;;;;;;8.13;1.40;;;20.20;64.10;;;;;;5058719;28;20135;-62
2022/07/07 09:14:37;;;;;;;3.13;1.20;;;20.10;64.50;;;;;;5058877;28;20063;-65
2022/07/07 09:17:13;;;;;;;3.40;1.23;;;20.10;64.90;;;;;;5058341;28;20056;-63
2022/07/07 09:19:40;;;;;;;5.20;1.60;;;20.10;66.00;;;;;;5058004;28;20414;-63
2022/07/07 09:22:08;;;;;;;3.33;1.30;;;20.10;67.10;;;;;;5073482;28;20139;-64
2022/07/07 09:24:51;;;;;;;4.38;1.73;;;20.00;68.30;;;;;;5058668;28;20406;-63
2022/07/07 09:27:18;;;;;;;5.55;2.70;;;19.90;69.30;;;;;;5056952;28;20044;-64
2022/07/07 09:29:45;;;;;;;5.78;2.35;;;19.80;69.70;;;;;;5056749;28;20061;-64
2022/07/07 09:32:12;;;;;;;4.20;2.25;;;19.80;70.10;;;;;;5056563;28;20056;-65
2022/07/07 09:34:39;;;;;;;5.25;2.38;;;19.80;70.40;;;;;;5057791;28;20052;-64
2022/07/07 09:39:55;;;;;;;5.13;2.28;;;19.70;71.40;;;;;;5052049;28;20127;-62
2022/07/07 09:42:23;;;;;;;5.47;2.30;;;19.70;71.10;;;;;;5058546;28;20049;-64
2022/07/07 09:44:52;;;;;;;5.88;2.45;;;19.80;72.20;;;;;;5055228;28;20052;-63
2022/07/07 09:47:20;;;;;;;7.03;3.08;;;19.80;73.00;;;;;;5054635;28;20456;-64
2022/07/07 09:49:59;;;;;;;7.05;2.88;;;19.80;72.90;;;;;;5059158;28;20501;-63
2022/07/07 09:52:28;;;;;;;8.65;2.80;;;19.80;72.70;;;;;;5059008;28;20187;-65
2022/07/07 09:54:56;;;;;;;8.17;2.50;;;19.80;72.70;;;;;;5048795;28;23413;-62
2022/07/07 09:57:23;;;;;;;4.70;2.28;;;19.90;73.00;;;;;;5043062;28;20455;-63
2022/07/07 09:59:50;;;;;;;4.95;1.85;;;20.10;72.60;;;;;;5049032;28;20041;-65
2022/07/07 10:02:22;;;;;;;5.18;1.77;;;20.10;73.00;;;;;;5045325;28;20040;-62
2022/07/07 10:04:50;;;;;;;4.15;1.60;;;20.10;73.60;;;;;;5055789;28;20478;-63
2022/07/07 10:07:21;;;;;;;2.53;1.38;;;20.10;73.10;;;;;;5058209;28;20045;-63
2022/07/07 10:09:57;;;;;;;3.33;1.42;;;20.00;73.10;;;;;;5046854;28;20045;-62
2022/07/07 10:12:26;;;;;;;5.32;1.65;;;20.00;74.00;;;;;;5041187;28;20421;-64
2022/07/07 10:14:58;;;;;;;2.20;1.35;;;20.10;74.10;;;;;;5044661;28;20613;-64
2022/07/07 10:17:27;;;;;;;2.85;1.40;;;20.10;74.20;;;;;;5046473;28;20044;-63
2022/07/07 10:19:54;;;;;;;4.10;1.42;;;20.20;73.90;;;;;;5046100;28;20047;-64
2022/07/07 10:22:27;;;;;;;2.65;1.77;;;20.20;73.80;;;;;;5042896;28;20049;-65
2022/07/07 10:24:56;;;;;;;3.63;1.90;;;20.30;74.00;;;;;;5044379;28;20060;-64
2022/07/07 10:27:24;;;;;;;3.13;1.60;;;20.40;73.60;;;;;;5045964;28;20057;-61
2022/07/07 10:29:53;;;;;;;4.38;1.73;;;20.40;73.40;;;;;;5044016;28;20479;-63
2022/07/07 10:32:30;;;;;;;3.35;1.33;;;20.50;72.60;;;;;;5047916;28;20233;-63
2022/07/07 10:35:00;;;;;;;3.38;1.60;;;20.60;73.00;;;;;;5047993;28;20055;-63
2022/07/07 10:37:27;;;;;;;3.35;1.48;;;20.60;73.00;;;;;;5057410;28;20045;-63
2022/07/07 10:39:57;;;;;;;3.33;1.52;;;20.60;73.40;;;;;;5057807;28;20051;-65
2022/07/07 10:42:45;;;;;;;;;;;20.70;73.50;;;;;;5055251;28;20044;-65
2022/07/07 10:45:14;;;;;;;3.83;1.50;;;20.90;73.50;;;;;;5043343;28;20012;-65
2022/07/07 10:47:41;;;;;;;5.60;1.60;;;21.10;73.30;;;;;;5044555;28;20052;-63
2022/07/07 10:50:25;;;;;;;1.95;1.05;;;21.30;72.50;;;;;;5056130;28;20052;-64
2022/07/07 10:52:53;;;;;;;3.10;1.42;;;21.60;71.70;;;;;;5052788;28;20052;-63
2022/07/07 10:55:22;;;;;;;6.50;1.25;;;21.70;71.90;;;;;;5049206;28;20171;-64
2022/07/07 10:57:49;;;;;;;9.52;1.40;;;22.00;71.80;;;;;;5049731;28;20098;-64
2022/07/07 11:00:18;;;;;;;1.85;1.00;;;22.10;71.20;;;;;;5049771;28;20056;-64
2022/07/07 11:02:48;;;;;;;2.35;1.08;;;22.00;71.50;;;;;;5051630;28;20431;-63
2022/07/07 11:05:30;;;;;;;3.25;1.38;;;21.80;71.40;;;;;;5048923;28;20051;-62
2022/07/07 11:08:09;;;;;;;2.22;0.98;;;21.60;71.80;;;;;;5050646;28;20049;-64
2022/07/07 11:10:54;;;;;;;2.47;1.10;;;21.70;71.50;;;;;;5051633;28;20056;-64
2022/07/07 11:13:33;;;;;;;1.50;0.93;;;21.60;71.90;;;;;;5051467;28;20098;-64
2022/07/07 11:16:21;;;;;;;4.80;1.00;;;21.60;71.50;;;;;;5049276;28;20047;-65
2022/07/07 11:18:50;;;;;;;1.70;1.15;;;21.50;71.50;;;;;;5048717;28;20044;-64
2022/07/07 11:21:17;;;;;;;2.47;1.27;;;21.50;71.80;;;;;;5047956;28;20052;-64
2022/07/07 11:23:57;;;;;;;1.88;0.90;;;21.40;72.10;;;;;;5052383;28;21079;-63
2022/07/07 11:26:27;;;;;;;1.60;1.00;;;21.30;73.30;;;;;;5052232;28;20059;-65
2022/07/07 11:28:55;;;;;;;;;;;21.30;71.50;;;;;;5050566;28;20048;-64
2022/07/07 11:31:22;;;;;;;3.38;1.20;;;21.20;70.80;;;;;;5051037;28;19920;-63
2022/07/07 11:33:51;;;;;;;2.40;1.00;;;21.10;71.00;;;;;;5047620;28;20045;-64
2022/07/07 11:36:20;;;;;;;1.35;0.93;;;21.20;71.30;;;;;;5049437;28;20439;-63
2022/07/07 11:38:49;;;;;;;1.97;1.00;;;21.30;71.10;;;;;;5049436;28;20048;-65
2022/07/07 11:41:17;;;;;;;2.15;0.98;;;21.40;70.90;;;;;;5049755;28;21008;-63
2022/07/07 11:43:54;;;;;;;1.35;0.80;;;21.50;70.40;;;;;;5046666;28;20087;-64
2022/07/07 11:46:23;;;;;;;1.67;1.00;;;21.70;70.00;;;;;;5046304;28;20071;-64
2022/07/07 11:48:50;;;;;;;1.73;0.85;;;21.70;69.80;;;;;;5046474;28;20106;-64
2022/07/07 11:51:17;;;;;;;1.63;1.00;;;21.70;69.70;;;;;;5049325;28;20895;-64
2022/07/07 11:53:55;;;;;;;1.83;1.20;;;21.80;69.80;;;;;;5049260;28;20099;-65
2022/07/07 11:56:31;;;;;;;2.17;0.93;;;21.90;69.50;;;;;;5045586;28;20045;-64
2022/07/07 11:59:02;;;;;;;2.60;0.93;;;22.10;69.50;;;;;;5046749;28;20061;-65
2022/07/07 12:01:32;;;;;;;1.40;0.80;;;22.20;69.20;;;;;;5047481;28;20044;-65
2022/07/07 12:03:59;;;;;;;3.58;0.85;;;22.20;68.90;;;;;;5041107;28;20052;-62
2022/07/07 12:06:27;;;;;;;1.48;0.80;;;22.20;69.00;;;;;;5049146;28;20044;-65
2022/07/07 12:08:57;;;;;;;1.30;0.77;;;22.20;68.70;;;;;;5048826;28;20405;-62
2022/07/07 12:11:24;;;;;;;;;;;22.10;68.40;;;;;;5048229;28;20069;-63
2022/07/07 12:13:53;;;;;;;2.13;0.80;;;21.90;68.10;;;;;;5051112;28;19931;-65
2022/07/07 12:16:22;;;;;;;3.05;0.70;;;21.80;68.00;;;;;;5046774;28;20137;-62
2022/07/07 12:18:49;;;;;;;3.92;0.65;;;21.70;68.60;;;;;;5052909;28;20514;-63
2022/07/07 12:21:23;;;;;;;1.27;0.50;;;21.80;68.10;;;;;;5049455;28;20040;-63
2022/07/07 12:23:53;;;;;;;1.30;0.70;;;22.10;68.00;;;;;;5049108;28;20053;-65
2022/07/07 12:26:25;;;;;;;1.95;0.70;;;22.10;67.80;;;;;;5048701;28;20558;-62
2022/07/07 12:28:58;;;;;;;1.10;0.63;;;22.20;67.30;;;;;;5048480;28;20645;-64
2022/07/07 12:31:27;;;;;;;0.60;0.43;;;22.30;66.90;;;;;;5047846;28;20132;-62
2022/07/07 12:33:54;;;;;;;1.33;0.68;;;22.40;66.90;;;;;;5046390;28;20049;-64
2022/07/07 12:36:24;;;;;;;0.85;0.60;;;22.40;67.10;;;;;;5047186;28;20049;-64
2022/07/07 12:38:55;;;;;;;2.58;0.70;;;22.50;67.00;;;;;;5048917;28;20157;-63
2022/07/07 12:41:24;;;;;;;1.10;0.50;;;22.60;67.10;;;;;;5048478;28;20123;-63
2022/07/07 12:43:51;;;;;;;1.35;0.60;;;22.60;66.90;;;;;;5047254;28;20054;-63
2022/07/07 12:46:18;;;;;;;4.13;0.65;;;22.60;66.50;;;;;;5055215;28;20048;-63
2022/07/07 12:48:49;;;;;;;1.00;0.45;;;22.80;65.70;;;;;;5056764;28;20063;-64
2022/07/07 12:51:18;;;;;;;1.65;0.57;;;22.80;64.60;;;;;;5050533;28;20045;-63
2022/07/07 12:53:45;;;;;;;0.85;0.50;;;22.90;63.90;;;;;;5048276;28;20049;-64
2022/07/07 12:56:15;;;;;;;2.15;0.50;;;23.00;63.00;;;;;;5048573;28;20056;-63